Date,TemperatureHighF,TemperatureAvgF,TemperatureLowF,DewpointHighF,DewpointAvgF,DewpointLowF,HumidityHigh,HumidityAvg,HumidityLow,PressureMaxIn,PressureMinIn,WindSpeedMaxMPH,WindSpeedAvgMPH,GustSpeedMaxMPH,PrecipitationSumIn
2013-10-2,82,70,59,67,64,58,98,81,56,30.22,30.10,1,0,2,0.00
2013-10-3,87,73,66,66,64,61,95,76,43,30.18,30.09,2,0,5,0.00
2013-10-4,87,70,59,67,63,57,98,81,50,30.21,30.12,1,0,4,0.00
2013-10-5,89,72,60,70,64,59,98,79,50,30.17,30.04,1,0,4,0.00
2013-10-6,69,65,63,65,63,61,96,92,84,30.05,29.91,0,0,2,0.01
2013-10-7,73,61,55,65,54,50,98,82,51,30.09,29.91,3,0,7,0.25
2013-10-8,78,61,49,60,53,46,93,77,50,30.17,30.08,1,0,3,0.02
2013-10-9,77,63,53,63,57,51,98,83,59,30.24,30.14,1,0,4,0.02
2013-10-10,77,65,56,62,58,54,98,79,55,30.20,30.08,2,0,5,0.00
2013-10-18,68,56,48,53,49,46,97,78,51,30.10,29.99,1,0,3,0.03
2013-10-19,68,56,49,56,50,45,95,83,59,30.07,29.94,2,0,8,0.00
2013-10-20,66,50,40,46,40,-100,97,75,42,30.13,30.05,1,0,3,0.00
2013-10-21,69,51,37,51,43,35,98,78,40,30.16,30.03,1,0,6,0.00
2013-10-22,69,59,54,54,51,48,92,75,55,30.06,29.90,2,0,5,0.00
2013-10-23,56,49,39,49,40,33,96,73,45,30.13,29.87,6,1,12,0.00
2013-10-24,58,46,37,42,38,33,93,75,48,30.30,30.11,1,0,5,0.00
2013-10-25,55,43,30,36,30,26,89,63,35,30.47,30.30,2,0,4,0.00
2013-10-26,62,42,28,36,31,26,96,69,35,30.37,30.16,1,0,8,0.00
2013-10-27,66,55,49,52,42,-100,82,65,52,30.18,30.12,1,0,4,0.00
2013-10-28,61,56,51,57,52,-100,97,89,80,30.30,30.15,1,0,4,0.02
2013-10-29,73,59,51,59,54,50,99,86,57,30.36,30.26,1,0,3,0.01
2013-10-30,79,64,57,60,57,55,95,79,50,30.31,30.16,1,0,4,0.00
2013-10-31,72,66,62,63,58,54,91,77,69,30.18,29.76,2,0,8,0.04